Terminal Aerodrome Forecast
Issued by NWS

Home | Current Version | Previous Version | Text Only | Print | Product List | Glossary On
Versions: 1 2 3 4 5 6 7 8 9 10 11 12 13 14 15 16
000
FTUS42 KMLB 172300
TAFSFB
TAF
KSFB 172337Z 1800/1824 26005KT P6SM VCSH SCT035 BKN250
     FM180100 VRB03KT P6SM SCT250
     FM181400 03005KT P6SM SCT020 SCT150 SCT250
     FM181900 06008KT P6SM VCSH SCT030 SCT080=

USA.gov is the U.S. government's official web portal to all federal, state and local government web resources and services.